Guernsey, Wyoming
Current Conditions -  °F | °C
As of 10:15 PM on Wednesday 22 Oct 2014 (Local Time) from KGUR Reporting Station
Clear Clear  
Wind Chill: 42°   Ceiling: Unl
Heat Index: 45°   Visibility: 10mi
Dew Point: 24°   Wind: 6mph
Humidity: 45%   Direction: 330°NNW
Pressure: 30.11"   Gusts: NA
Location:  42.27°N, 104.74°W
Report Text: KGUR 230415Z AUTO 33005KT 10SM CLR 07/M04 A3011 RMK AO2 T00711042 PWINO
Loading
Personal Weather Stations






























Interactive Weather Map
Tropical Storm Tracking
New forecast layout! Learn more

10-Day Weather Forecast

Advertisements
Track Severe Weather on mobile